Time;durP1;ratioP1;P1;durP2;ratioP2;P2;SDS_P1;SDS_P2;PMS_P1;PMS_P2;Temp;Humidity;BMP_temperature;BMP_pressure;BME280_temperature;BME280_humidity;BME280_pressure;Samples;Min_cycle;Max_cycle;Signal;HPM_P1;HPM_P2
2021/03/14 00:01:22;;;;;;;8.20;5.03;;;;;;;6.01;61.45;98712.75;128189;1101;22514;-73
2021/03/14 00:03:51;;;;;;;10.58;5.58;;;;;;;6.03;61.66;98714.21;127924;1100;22533;-73
2021/03/14 00:06:19;;;;;;;8.03;5.05;;;;;;;6.00;61.68;98716.34;128160;1101;22528;-73
2021/03/14 00:08:47;;;;;;;11.00;6.33;;;;;;;5.92;61.25;98722.45;127964;1101;23073;-73
2021/03/14 00:11:15;;;;;;;11.75;6.75;;;;;;;5.83;61.93;98724.35;127926;1100;22612;-73
2021/03/14 00:13:43;;;;;;;14.03;8.53;;;;;;;5.79;61.57;98722.24;128090;1099;25065;-73
2021/03/14 00:16:12;;;;;;;14.78;8.98;;;;;;;5.73;62.39;98725.56;128178;1101;22506;-73
2021/03/14 00:18:42;;;;;;;14.58;7.45;;;;;;;5.68;61.74;98714.81;127921;1101;24732;-73
2021/03/14 00:21:11;;;;;;;13.33;6.50;;;;;;;5.62;61.95;98718.94;128064;1101;22707;-74
2021/03/14 00:23:39;;;;;;;14.87;7.08;;;;;;;5.63;62.39;98713.55;127968;1101;22613;-73
2021/03/14 00:26:07;;;;;;;11.10;6.17;;;;;;;5.67;62.25;98711.38;128212;1100;22627;-73
2021/03/14 00:28:36;;;;;;;8.65;5.35;;;;;;;5.68;63.21;98720.05;128169;1101;22627;-73
2021/03/14 00:31:04;;;;;;;8.18;5.10;;;;;;;5.70;62.85;98729.38;128161;1099;22513;-72
2021/03/14 00:33:32;;;;;;;10.48;5.60;;;;;;;5.72;63.09;98718.70;127917;1101;22542;-72
2021/03/14 00:36:00;;;;;;;9.48;4.72;;;;;;;5.65;62.89;98718.59;127934;1101;24651;-73
2021/03/14 00:38:29;;;;;;;9.20;5.37;;;;;;;5.58;63.18;98723.72;128161;1100;22646;-73
2021/03/14 00:40:57;;;;;;;8.35;4.47;;;;;;;5.57;62.86;98731.77;128147;1101;22515;-73
2021/03/14 00:43:25;;;;;;;7.10;3.73;;;;;;;5.52;63.24;98727.03;127954;1100;24779;-72
2021/03/14 00:45:53;;;;;;;5.92;3.60;;;;;;;5.48;62.84;98725.77;127960;1101;22529;-73
2021/03/14 00:48:33;;;;;;;5.87;4.08;;;;;;;5.46;63.23;98726.92;128149;1100;22545;-73
2021/03/14 00:51:02;;;;;;;6.58;3.90;;;;;;;5.45;63.78;98728.73;127956;1100;23415;-73
2021/03/14 00:53:36;;;;;;;4.58;3.05;;;;;;;5.45;63.14;98725.30;127964;1101;22535;-74
2021/03/14 00:56:06;;;;;;;7.60;3.58;;;;;;;5.40;63.09;98721.41;127919;1101;22506;-73
2021/03/14 00:58:34;;;;;;;7.47;3.55;;;;;;;5.37;63.55;98716.52;128162;1099;22528;-73
2021/03/14 01:01:03;;;;;;;8.85;3.33;;;;;;;5.35;63.84;98715.86;128169;1101;22500;-73
2021/03/14 01:03:35;;;;;;;5.73;3.50;;;;;;;5.30;63.22;98712.13;127963;1101;22503;-73
2021/03/14 01:06:03;;;;;;;5.85;2.90;;;;;;;5.26;63.30;98709.04;128200;1101;22512;-73
2021/03/14 01:08:31;;;;;;;6.80;3.60;;;;;;;5.27;63.77;98709.88;127944;1100;22500;-72
2021/03/14 01:11:00;;;;;;;5.08;3.12;;;;;;;5.28;63.59;98708.88;128182;1101;22514;-72
2021/03/14 01:13:44;;;;;;;4.75;3.10;;;;;;;5.29;63.98;98718.36;127988;1101;22553;-72
2021/03/14 01:16:14;;;;;;;5.78;3.50;;;;;;;5.32;63.38;98707.55;128016;1101;22515;-72
2021/03/14 01:18:52;;;;;;;8.58;3.50;;;;;;;5.32;63.59;98705.73;127959;1100;22614;-72
2021/03/14 01:21:21;;;;;;;7.30;3.25;;;;;;;5.34;63.27;98700.34;127997;1101;22535;-72
2021/03/14 01:23:49;;;;;;;5.20;3.30;;;;;;;5.33;63.11;98707.38;127945;1101;22640;-72
2021/03/14 01:26:17;;;;;;;5.10;3.22;;;;;;;5.31;63.27;98698.88;128214;1101;22535;-72
2021/03/14 01:28:49;;;;;;;5.85;2.90;;;;;;;5.29;63.35;98690.37;128210;1101;22490;-75
2021/03/14 01:31:17;;;;;;;7.27;3.37;;;;;;;5.28;63.24;98696.60;127941;1101;22564;-73
2021/03/14 01:33:46;;;;;;;5.62;3.05;;;;;;;5.31;63.29;98698.88;128306;1101;22676;-74
2021/03/14 01:36:16;;;;;;;6.37;3.05;;;;;;;5.32;63.61;98697.06;128172;1101;22566;-73
2021/03/14 01:38:44;;;;;;;4.75;2.60;;;;;;;5.34;63.74;98698.53;128136;1101;22498;-73
2021/03/14 01:41:13;;;;;;;9.48;3.05;;;;;;;5.37;63.80;98692.14;127944;1101;22587;-73
2021/03/14 01:43:41;;;;;;;5.90;3.10;;;;;;;5.36;62.74;98687.87;128169;1101;24738;-72
2021/03/14 01:46:11;;;;;;;6.25;3.27;;;;;;;5.38;62.86;98688.52;128151;1100;22536;-72
2021/03/14 01:48:40;;;;;;;6.22;3.22;;;;;;;5.38;62.59;98680.66;127979;1101;22683;-72
2021/03/14 01:51:08;;;;;;;4.87;2.72;;;;;;;5.36;63.26;98680.82;127956;1101;22588;-73
2021/03/14 01:53:36;;;;;;;5.27;3.03;;;;;;;5.33;62.46;98677.73;127963;1101;22499;-72
2021/03/14 01:56:06;;;;;;;8.25;3.42;;;;;;;5.30;62.52;98673.69;128000;1101;22501;-72
2021/03/14 01:58:35;;;;;;;7.25;4.08;;;;;;;5.29;63.16;98674.66;128226;1099;24327;-73
2021/03/14 02:01:03;;;;;;;6.85;3.17;;;;;;;5.30;62.61;98667.61;128123;1101;24684;-73
2021/03/14 02:03:32;;;;;;;6.10;2.98;;;;;;;5.32;62.81;98663.84;128188;1100;22927;-72
2021/03/14 02:06:00;;;;;;;6.70;2.75;;;;;;;5.34;63.03;98668.92;128103;1101;22480;-72
2021/03/14 02:08:28;;;;;;;5.77;2.67;;;;;;;5.32;62.85;98665.65;128063;1101;22766;-72
2021/03/14 02:10:56;;;;;;;4.33;2.77;;;;;;;5.30;62.28;98657.98;128153;1099;22481;-71
2021/03/14 02:13:41;;;;;;;6.10;2.80;;;;;;;5.27;62.62;98667.99;128145;1101;22521;-72
2021/03/14 02:16:19;;;;;;;7.72;3.00;;;;;;;5.24;62.79;98671.77;127991;1099;22507;-72
2021/03/14 02:18:55;;;;;;;6.25;3.65;;;;;;;5.22;62.48;98686.02;128251;1101;24317;-72
2021/03/14 02:21:24;;;;;;;4.78;2.60;;;;;;;5.19;62.46;98684.55;128326;1100;22534;-73
2021/03/14 02:24:07;;;;;;;5.67;2.90;;;;;;;5.17;62.24;98682.12;128169;1101;22497;-73
2021/03/14 02:26:45;;;;;;;7.50;3.58;;;;;;;5.18;62.63;98696.83;128069;1101;23682;-73
2021/03/14 02:29:19;;;;;;;7.35;2.83;;;;;;;5.21;62.98;98693.05;128158;1100;22598;-72
2021/03/14 02:31:53;;;;;;;7.70;3.52;;;;;;;5.22;63.03;98696.48;128290;1101;24353;-73
2021/03/14 02:34:42;;;;;;;8.10;3.77;;;;;;;5.22;62.53;98707.77;128248;1101;22513;-73
2021/03/14 02:37:11;;;;;;;6.17;3.37;;;;;;;5.18;62.28;98706.48;128170;1100;24590;-72
2021/03/14 02:39:41;;;;;;;6.65;3.22;;;;;;;5.13;62.07;98698.33;127894;1100;22669;-72
2021/03/14 02:42:11;;;;;;;6.85;4.25;;;;;;;5.12;62.44;98701.94;127942;1101;22545;-73
2021/03/14 02:44:48;;;;;;;6.12;3.52;;;;;;;5.07;62.80;98699.85;128153;1099;22535;-72
2021/03/14 02:47:23;;;;;;;7.47;3.52;;;;;;;5.06;62.92;98706.05;128107;1100;24337;-72
2021/03/14 02:50:09;;;;;;;6.47;3.00;;;;;;;5.06;62.35;98715.72;127985;1101;24597;-72
2021/03/14 02:52:39;;;;;;;3.25;2.22;;;;;;;5.07;62.88;98710.33;128162;1100;22509;-72
2021/03/14 02:55:10;;;;;;;5.40;3.22;;;;;;;5.12;62.58;98715.03;128186;1100;22532;-72
2021/03/14 02:57:40;;;;;;;5.10;2.87;;;;;;;5.07;62.65;98709.52;128021;1101;22540;-72
2021/03/14 03:00:14;;;;;;;6.60;3.00;;;;;;;5.09;63.01;98716.18;128022;1101;24338;-72
2021/03/14 03:02:52;;;;;;;4.90;2.40;;;;;;;5.06;62.81;98711.29;128239;1100;22566;-72
2021/03/14 03:05:22;;;;;;;4.65;2.70;;;;;;;5.06;62.48;98718.33;128228;1101;22775;-72
2021/03/14 03:07:55;;;;;;;4.22;2.62;;;;;;;5.05;62.29;98717.52;128270;1101;22505;-73
2021/03/14 03:10:41;;;;;;;7.75;2.90;;;;;;;5.03;62.08;98718.67;128192;1101;22629;-72
2021/03/14 03:13:11;;;;;;;8.00;2.22;;;;;;;5.04;62.92;98708.05;128181;1099;22535;-73
2021/03/14 03:15:40;;;;;;;4.75;2.45;;;;;;;5.07;62.29;98714.75;128262;1101;22539;-73
2021/03/14 03:18:09;;;;;;;4.03;2.45;;;;;;;5.05;62.59;98714.91;128185;1099;22498;-73
2021/03/14 03:20:39;;;;;;;5.35;2.55;;;;;;;5.04;62.57;98715.09;127961;1101;22522;-73
2021/03/14 03:23:07;;;;;;;6.95;3.40;;;;;;;5.02;62.12;98710.02;128218;1101;22586;-72
2021/03/14 03:25:36;;;;;;;5.08;3.12;;;;;;;5.03;62.65;98713.44;127946;1101;22535;-72
2021/03/14 03:28:06;;;;;;;8.05;4.22;;;;;;;5.00;62.79;98705.93;128208;1101;22539;-72
2021/03/14 03:30:34;;;;;;;8.18;4.95;;;;;;;5.00;62.51;98713.78;127956;1101;22507;-72
2021/03/14 03:33:02;;;;;;;9.03;4.78;;;;;;;5.01;62.96;98718.86;127926;1101;24009;-73
2021/03/14 03:35:31;;;;;;;8.33;4.55;;;;;;;5.01;62.63;98721.47;128201;1101;22580;-72
2021/03/14 03:38:01;;;;;;;6.73;3.83;;;;;;;5.03;62.04;98726.52;127940;1101;22633;-73
2021/03/14 03:40:35;;;;;;;7.65;4.75;;;;;;;5.05;62.18;98717.52;128154;1099;22499;-74
2021/03/14 03:43:33;;;;;;;6.78;4.03;;;;;;;5.09;62.11;98716.18;128248;1101;24600;-72
2021/03/14 03:46:08;;;;;;;8.50;4.60;;;;;;;5.11;62.18;98718.64;128138;1101;22512;-72
2021/03/14 03:48:46;;;;;;;6.70;3.87;;;;;;;5.11;62.61;98716.84;128218;1100;22653;-72
2021/03/14 03:51:28;;;;;;;6.62;3.80;;;;;;;5.12;62.45;98715.84;128118;1100;22538;-72
2021/03/14 03:54:03;;;;;;;4.67;3.25;;;;;;;5.12;61.68;98720.27;127927;1101;22531;-72
2021/03/14 03:56:32;;;;;;;6.10;3.10;;;;;;;5.11;61.72;98710.79;128197;1101;24194;-72
2021/03/14 03:59:05;;;;;;;7.92;3.27;;;;;;;5.12;61.81;98715.03;128207;1100;22625;-72
2021/03/14 04:01:35;;;;;;;6.53;2.83;;;;;;;5.13;61.50;98716.65;128152;1101;22501;-72
2021/03/14 04:04:06;;;;;;;4.28;2.70;;;;;;;5.14;61.53;98713.87;128000;1101;22576;-75
2021/03/14 04:06:36;;;;;;;4.67;2.90;;;;;;;5.15;61.35;98712.87;127931;1101;24393;-72
2021/03/14 04:09:07;;;;;;;6.08;2.33;;;;;;;5.15;61.35;98707.64;128107;1099;25266;-72
2021/03/14 04:11:41;;;;;;;5.33;2.98;;;;;;;5.15;61.64;98715.50;128154;1101;22512;-73
2021/03/14 04:14:11;;;;;;;5.92;3.35;;;;;;;5.10;61.45;98712.59;128198;1101;22508;-73
2021/03/14 04:16:40;;;;;;;3.83;2.77;;;;;;;5.05;61.86;98714.91;127941;1099;24362;-75
2021/03/14 04:19:22;;;;;;;3.87;2.58;;;;;;;5.03;61.25;98705.59;128157;1101;24665;-73
2021/03/14 04:21:52;;;;;;;8.00;3.77;;;;;;;4.97;61.87;98711.53;127950;1101;22606;-72
2021/03/14 04:24:23;;;;;;;6.05;2.83;;;;;;;4.90;61.87;98706.98;127959;1101;22535;-72
2021/03/14 04:26:53;;;;;;;6.15;3.40;;;;;;;4.89;61.97;98704.52;128235;1101;22609;-73
2021/03/14 04:29:23;;;;;;;4.10;2.45;;;;;;;4.86;62.31;98708.28;128219;1100;22535;-73
2021/03/14 04:31:52;;;;;;;4.30;2.60;;;;;;;4.87;61.81;98707.33;128034;1101;22605;-73
2021/03/14 04:34:22;;;;;;;5.00;3.30;;;;;;;4.87;61.58;98707.33;128360;1101;23255;-72
2021/03/14 04:36:51;;;;;;;7.90;3.37;;;;;;;4.85;61.92;98700.63;127951;1100;24333;-72
2021/03/14 04:39:20;;;;;;;5.28;3.20;;;;;;;4.82;61.85;98703.58;128145;1099;25039;-72
2021/03/14 04:41:49;;;;;;;4.58;2.83;;;;;;;4.79;61.96;98709.15;128170;1101;23516;-74
2021/03/14 04:44:19;;;;;;;5.80;3.02;;;;;;;4.78;62.02;98705.72;128196;1100;22532;-73
2021/03/14 04:46:47;;;;;;;5.42;2.98;;;;;;;4.72;62.50;98701.98;128028;1101;22499;-73
2021/03/14 04:49:16;;;;;;;5.30;3.02;;;;;;;4.68;61.76;98694.66;127960;1101;22632;-72
2021/03/14 04:51:46;;;;;;;7.08;4.25;;;;;;;4.65;62.06;98702.84;128151;1100;22630;-73
2021/03/14 04:54:15;;;;;;;6.87;4.00;;;;;;;4.61;62.91;98693.70;128009;1101;22535;-73
2021/03/14 04:56:45;;;;;;;7.80;4.05;;;;;;;4.61;63.01;98694.52;127987;1101;22493;-73
2021/03/14 04:59:15;;;;;;;7.53;3.95;;;;;;;4.60;62.77;98689.44;128228;1100;24347;-73
2021/03/14 05:01:45;;;;;;;6.03;3.40;;;;;;;4.61;62.29;98689.29;127988;1101;22533;-72
2021/03/14 05:04:19;;;;;;;8.18;4.15;;;;;;;4.57;62.86;98693.23;128186;1101;22632;-73
2021/03/14 05:06:49;;;;;;;7.90;4.53;;;;;;;4.56;62.97;98688.16;128178;1101;24353;-73
2021/03/14 05:09:17;;;;;;;7.10;3.83;;;;;;;4.51;62.21;98686.06;128162;1100;22507;-73
2021/03/14 05:11:48;;;;;;;5.85;3.95;;;;;;;4.47;62.95;98692.63;127994;1100;22535;-72
2021/03/14 05:14:18;;;;;;;6.75;4.08;;;;;;;4.45;63.42;98689.35;128220;1099;22498;-73
2021/03/14 05:16:46;;;;;;;8.40;4.00;;;;;;;4.44;63.12;98679.89;127953;1101;22509;-73
2021/03/14 05:19:16;;;;;;;6.15;3.60;;;;;;;4.46;63.27;98680.52;128248;1100;24448;-73
2021/03/14 05:22:02;;;;;;;10.05;4.83;;;;;;;4.43;63.79;98673.01;127980;1101;22497;-73
2021/03/14 05:24:32;;;;;;;12.75;5.33;;;;;;;4.44;63.35;98669.42;127921;1099;23408;-73
2021/03/14 05:27:04;;;;;;;9.95;4.15;;;;;;;4.46;63.77;98667.44;128262;1101;22506;-73
2021/03/14 05:29:33;;;;;;;7.55;4.28;;;;;;;4.48;63.19;98670.71;128169;1100;22492;-73
2021/03/14 05:32:01;;;;;;;12.13;6.67;;;;;;;4.44;63.54;98666.81;128162;1101;22539;-72
2021/03/14 05:34:29;;;;;;;6.62;4.00;;;;;;;4.44;63.57;98666.81;128199;1100;22535;-72
2021/03/14 05:36:58;;;;;;;8.98;4.35;;;;;;;4.42;63.91;98655.70;127959;1100;22502;-72
2021/03/14 05:39:26;;;;;;;7.62;4.10;;;;;;;4.42;63.50;98655.70;128142;1101;24654;-72
2021/03/14 05:41:54;;;;;;;7.17;3.72;;;;;;;4.45;63.74;98661.40;127926;1101;22504;-73
2021/03/14 05:44:22;;;;;;;10.85;4.97;;;;;;;4.49;63.95;98667.91;128223;1101;24388;-73
2021/03/14 05:46:50;;;;;;;6.28;3.17;;;;;;;4.54;63.51;98669.23;127957;1101;22628;-72
2021/03/14 05:49:19;;;;;;;5.85;3.40;;;;;;;4.58;63.85;98678.36;128191;1101;23009;-72
2021/03/14 05:51:53;;;;;;;6.85;4.12;;;;;;;4.62;63.03;98680.45;128171;1100;24425;-73
2021/03/14 05:54:22;;;;;;;7.85;4.40;;;;;;;4.65;62.93;98689.77;128188;1100;22539;-73
2021/03/14 05:56:51;;;;;;;9.73;5.03;;;;;;;4.66;62.72;98705.27;128058;1101;22496;-73
2021/03/14 05:59:19;;;;;;;7.20;4.00;;;;;;;4.69;62.93;98710.16;127937;1101;22846;-73
2021/03/14 06:01:51;;;;;;;6.60;4.42;;;;;;;4.68;62.66;98700.70;128169;1100;22507;-73
2021/03/14 06:04:20;;;;;;;5.97;3.58;;;;;;;4.69;62.46;98710.16;127956;1101;24706;-73
2021/03/14 06:06:48;;;;;;;6.75;3.80;;;;;;;4.71;62.74;98723.09;127930;1101;24508;-74
2021/03/14 06:09:17;;;;;;;6.40;3.90;;;;;;;4.74;63.12;98727.17;128171;1101;23012;-72
2021/03/14 06:11:46;;;;;;;9.33;5.75;;;;;;;4.80;63.23;98726.47;127934;1101;22575;-74
2021/03/14 06:14:14;;;;;;;9.85;5.80;;;;;;;4.85;62.41;98729.41;127954;1101;22565;-72
2021/03/14 06:16:42;;;;;;;8.88;4.35;;;;;;;4.91;62.63;98726.11;128019;1101;22499;-73
2021/03/14 06:19:12;;;;;;;7.60;4.67;;;;;;;4.97;62.75;98732.47;128235;1101;22556;-73
2021/03/14 06:21:40;;;;;;;9.18;6.87;;;;;;;4.98;62.49;98734.90;128227;1100;22649;-74
2021/03/14 06:24:11;;;;;;;9.18;6.78;;;;;;;5.01;61.88;98734.56;127955;1101;24743;-73
2021/03/14 06:26:47;;;;;;;7.00;4.12;;;;;;;5.06;61.60;98739.27;127932;1101;22494;-74
2021/03/14 06:29:18;;;;;;;5.58;4.03;;;;;;;5.09;61.73;98734.50;128262;1101;22658;-74
2021/03/14 06:31:56;;;;;;;8.55;6.35;;;;;;;5.12;62.22;98739.39;128150;1100;22479;-74
2021/03/14 06:34:31;;;;;;;9.45;4.90;;;;;;;5.15;61.75;98739.05;128173;1100;24291;-74
2021/03/14 06:37:19;;;;;;;15.35;7.97;;;;;;;5.21;61.97;98737.56;128133;1101;22511;-73
2021/03/14 06:39:51;;;;;;;7.83;5.10;;;;;;;5.29;61.33;98734.88;128234;1101;22582;-74
2021/03/14 06:42:36;;;;;;;10.32;5.65;;;;;;;5.42;60.96;98739.55;128234;1100;22608;-73
2021/03/14 06:45:15;;;;;;;8.50;4.85;;;;;;;5.54;61.16;98750.45;128160;1099;22495;-74
2021/03/14 06:47:50;;;;;;;6.67;4.17;;;;;;;5.68;60.92;98748.88;127925;1100;22535;-74
2021/03/14 06:50:38;;;;;;;6.85;4.37;;;;;;;5.86;60.75;98754.61;128019;1099;24399;-73
2021/03/14 06:53:15;;;;;;;7.25;3.70;;;;;;;6.02;60.33;98753.69;127943;1101;22657;-74
2021/03/14 06:55:46;;;;;;;7.30;3.95;;;;;;;6.23;59.92;98755.62;128219;1099;24414;-75
2021/03/14 06:58:33;;;;;;;6.00;4.00;;;;;;;6.47;59.88;98757.20;128174;1101;23394;-74
2021/03/14 07:01:13;;;;;;;7.80;4.53;;;;;;;6.78;59.56;98768.31;128165;1100;24284;-75
2021/03/14 07:03:52;;;;;;;6.35;3.90;;;;;;;7.13;59.13;98763.31;128091;1101;22500;-74
2021/03/14 07:06:26;;;;;;;7.75;3.52;;;;;;;7.50;58.60;98772.80;128171;1101;22528;-74
2021/03/14 07:08:58;;;;;;;8.28;4.70;;;;;;;7.95;57.55;98778.67;128032;1101;22609;-73
2021/03/14 07:11:39;;;;;;;7.35;4.15;;;;;;;8.41;56.87;98780.89;128133;1101;22498;-78
2021/03/14 07:14:14;;;;;;;9.55;7.25;;;;;;;8.88;56.33;98783.80;128013;1101;24597;-74
2021/03/14 07:16:49;;;;;;;24.72;17.35;;;;;;;9.31;55.11;98789.66;127929;1100;22492;-74
2021/03/14 07:19:28;;;;;;;18.60;16.67;;;;;;;9.68;53.76;98776.97;128234;1100;24657;-73
2021/03/14 07:22:11;;;;;;;12.35;9.70;;;;;;;10.00;52.63;98785.95;128102;1101;22542;-74
2021/03/14 07:24:42;;;;;;;13.53;8.05;;;;;;;10.36;52.17;98782.09;128191;1100;24356;-73
2021/03/14 07:27:24;;;;;;;10.73;6.83;;;;;;;10.71;51.51;98785.30;128070;1101;22573;-74
2021/03/14 07:29:55;;;;;;;11.25;9.03;;;;;;;10.92;50.08;98783.41;128149;1100;25795;-74
2021/03/14 07:32:25;;;;;;;;;;;;;;;11.16;49.72;98779.25;128354;1099;22589;-74
2021/03/14 07:34:54;;;;;;;10.18;5.85;;;;;;;11.34;49.62;98775.94;127967;1101;21706;-74
2021/03/14 07:37:23;;;;;;;10.65;6.65;;;;;;;11.53;48.63;98782.95;128166;1100;22536;-74
2021/03/14 07:39:51;;;;;;;6.55;5.03;;;;;;;11.62;47.83;98791.44;128010;1101;22623;-76
2021/03/14 07:42:21;;;;;;;7.65;5.25;;;;;;;11.73;47.69;98796.06;128259;1099;22523;-76
2021/03/14 07:44:50;;;;;;;7.90;4.50;;;;;;;11.85;47.12;98783.78;128021;1101;22580;-76
2021/03/14 07:47:20;;;;;;;8.75;4.75;;;;;;;12.03;46.95;98791.01;127974;1101;22553;-76
2021/03/14 07:49:55;;;;;;;8.20;4.92;;;;;;;12.18;46.67;98782.73;127997;1101;22508;-75
2021/03/14 07:52:30;;;;;;;6.87;3.80;;;;;;;12.34;45.78;98778.73;128021;1101;22613;-76
2021/03/14 07:55:08;;;;;;;7.50;3.95;;;;;;;12.37;45.08;98784.41;128195;1101;22837;-76
2021/03/14 07:57:43;;;;;;;7.90;5.10;;;;;;;12.45;45.14;98778.81;128031;1101;22508;-75
2021/03/14 08:00:23;;;;;;;8.33;5.03;;;;;;;12.46;44.34;98775.16;127998;1101;22547;-76
2021/03/14 08:02:53;;;;;;;10.18;5.28;;;;;;;12.30;44.51;98777.55;128196;1101;24338;-75
2021/03/14 08:05:37;;;;;;;9.48;4.50;;;;;;;12.43;44.80;98775.59;128014;1101;22492;-75
2021/03/14 08:08:31;;;;;;;11.03;4.30;;;;;;;12.46;43.74;98787.56;128274;1101;22502;-76
2021/03/14 08:11:00;;;;;;;8.95;4.97;;;;;;;12.45;43.97;98802.66;127942;1104;22714;-76
2021/03/14 08:13:40;;;;;;;8.88;4.45;;;;;;;12.37;43.35;98810.08;127480;1105;22813;-79
2021/03/14 08:16:14;;;;;;;11.53;5.33;;;;;;;12.18;42.98;98827.73;127880;1103;22589;-77
2021/03/14 08:18:47;;;;;;;12.65;5.78;;;;;;;11.94;43.07;98821.39;128011;1104;22659;-76
2021/03/14 08:21:22;;;;;;;8.43;4.12;;;;;;;11.50;43.14;98846.84;127438;1104;22592;-77
2021/03/14 08:24:13;;;;;;;7.35;4.60;;;;;;;10.91;43.52;98846.02;127901;1104;22515;-77
2021/03/14 08:26:42;;;;;;;4.83;3.17;;;;;;;10.57;44.49;98862.92;127559;1105;22512;-77
2021/03/14 08:29:15;;;;;;;5.47;4.33;;;;;;;10.28;44.76;98878.13;127548;1105;22595;-77
2021/03/14 08:31:55;;;;;;;9.63;4.60;;;;;;;10.05;45.31;98882.95;127563;1105;24038;-77
2021/03/14 08:34:30;;;;;;;5.42;3.35;;;;;;;9.78;45.73;98889.98;127918;1103;22545;-76
2021/03/14 08:37:00;;;;;;;6.12;3.83;;;;;;;9.59;46.19;98881.79;127920;1102;24703;-77
2021/03/14 08:39:43;;;;;;;6.53;4.53;;;;;;;9.35;46.56;98891.02;127566;1105;22745;-77
2021/03/14 08:42:15;;;;;;;9.63;4.05;;;;;;;9.13;46.93;98914.03;127517;1104;22757;-77
2021/03/14 08:44:49;;;;;;;7.03;3.98;;;;;;;8.98;47.48;98918.58;127889;1105;22642;-77
2021/03/14 08:47:27;;;;;;;7.33;4.25;;;;;;;8.85;47.66;98926.37;127594;1104;22503;-75
2021/03/14 08:50:02;;;;;;;7.87;3.70;;;;;;;8.67;48.12;98924.23;127963;1099;22708;-77
2021/03/14 08:52:39;;;;;;;6.92;3.12;;;;;;;8.50;48.34;98926.31;127986;1101;22512;-76
2021/03/14 08:55:23;;;;;;;5.65;3.10;;;;;;;8.31;48.58;98935.61;128233;1100;22630;-77
2021/03/14 08:57:52;;;;;;;5.97;3.27;;;;;;;8.23;49.27;98946.23;128075;1101;22544;-77
2021/03/14 09:00:22;;;;;;;10.38;6.00;;;;;;;8.10;49.42;98939.05;128012;1101;22626;-78
2021/03/14 09:02:56;;;;;;;5.67;3.65;;;;;;;7.98;49.49;98943.16;128193;1099;22540;-77
2021/03/14 09:06:06;;;;;;;;;;;;;;;7.85;49.55;98941.19;128208;1101;22502;-78
2021/03/14 09:08:35;;;;;;;8.55;4.50;;;;;;;7.70;50.01;98953.56;128091;1101;21314;-76
2021/03/14 09:11:03;;;;;;;7.50;4.22;;;;;;;7.66;50.11;98929.42;128037;1100;25176;-77
2021/03/14 09:13:32;;;;;;;5.45;3.22;;;;;;;7.60;49.74;98947.73;128086;1101;23020;-76
2021/03/14 09:16:13;;;;;;;8.83;5.08;;;;;;;7.55;50.56;98956.19;128035;1101;22714;-76
2021/03/14 09:18:52;;;;;;;8.98;6.37;;;;;;;7.54;50.65;98954.56;128056;1101;22687;-77
2021/03/14 09:21:21;;;;;;;7.25;5.42;;;;;;;7.49;50.29;98955.09;128178;1100;22535;-76
2021/03/14 09:23:54;;;;;;;9.80;6.12;;;;;;;7.48;50.35;98961.35;127957;1101;22497;-76
2021/03/14 09:26:33;;;;;;;8.68;6.12;;;;;;;7.47;50.93;98959.73;128004;1101;22532;-76
2021/03/14 09:29:09;;;;;;;8.00;5.28;;;;;;;7.45;50.73;98974.84;127996;1101;25925;-77
2021/03/14 09:31:42;;;;;;;8.98;5.87;;;;;;;7.41;51.16;98970.15;128227;1101;22840;-76
2021/03/14 09:34:22;;;;;;;24.65;16.02;;;;;;;7.38;51.30;98976.58;128021;1101;22589;-76
2021/03/14 09:36:52;;;;;;;12.37;7.03;;;;;;;7.40;51.28;98973.78;128044;1101;24588;-76
2021/03/14 09:39:26;;;;;;;12.88;10.53;;;;;;;7.38;51.29;98986.27;128161;1101;22503;-77
2021/03/14 09:42:03;;;;;;;12.28;8.55;;;;;;;7.40;51.13;98985.10;128164;1101;25151;-77
2021/03/14 09:45:04;;;;;;;13.88;10.68;;;;;;;7.42;51.33;98987.53;128214;1101;22500;-76
2021/03/14 09:47:32;;;;;;;19.65;12.05;;;;;;;7.40;51.39;98995.61;128305;1099;22500;-77
2021/03/14 09:50:09;;;;;;;10.70;6.90;;;;;;;7.43;51.62;98990.00;128173;1099;24609;-77
2021/03/14 09:52:50;;;;;;;10.33;6.57;;;;;;;7.38;51.81;98992.34;128070;1101;22599;-78
2021/03/14 09:55:46;;;;;;;103.10;73.22;;;;;;;7.36;51.94;98991.69;128244;1101;22534;-78
2021/03/14 09:58:18;;;;;;;39.10;26.67;;;;;;;7.35;52.08;99005.02;128269;1101;22498;-75
2021/03/14 10:00:50;;;;;;;11.55;8.68;;;;;;;7.35;52.13;99000.58;128087;1100;22567;-76
2021/03/14 10:03:33;;;;;;;14.68;11.33;;;;;;;7.35;52.31;99007.64;128069;1101;22509;-77
2021/03/14 10:06:15;;;;;;;12.33;7.22;;;;;;;7.31;52.70;99012.45;128021;1101;22766;-75
2021/03/14 10:08:53;;;;;;;10.78;6.75;;;;;;;7.31;52.51;99012.45;128024;1099;22503;-76
2021/03/14 10:11:22;;;;;;;10.60;6.25;;;;;;;7.30;53.00;99011.63;128030;1101;22503;-77
2021/03/14 10:14:00;;;;;;;9.55;7.22;;;;;;;7.28;53.02;99023.31;127990;1101;23019;-76
2021/03/14 10:16:30;;;;;;;16.57;9.55;;;;;;;7.25;53.12;99027.10;128437;1101;22535;-75
2021/03/14 10:19:04;;;;;;;12.07;8.70;;;;;;;7.21;53.43;99028.46;128476;1099;24360;-76
2021/03/14 10:21:46;;;;;;;10.23;6.45;;;;;;;7.25;53.09;99021.84;128074;1100;22515;-76
2021/03/14 10:24:45;;;;;;;8.80;6.25;;;;;;;7.27;53.54;99037.45;128034;1101;22724;-76
2021/03/14 10:27:22;;;;;;;9.47;5.23;;;;;;;7.34;53.74;99025.22;128034;1101;22510;-76
2021/03/14 10:30:18;;;;;;;9.70;5.62;;;;;;;7.39;53.09;99040.44;128012;1101;22608;-76
2021/03/14 10:33:30;;;;;;;9.43;6.30;;;;;;;7.40;53.58;99040.28;127980;1101;22512;-76
2021/03/14 10:36:09;;;;;;;11.48;7.40;;;;;;;7.40;53.76;99052.60;128265;1099;22497;-76
2021/03/14 10:38:44;;;;;;;15.28;9.33;;;;;;;7.38;53.71;99052.77;128048;1101;22706;-77
2021/03/14 10:41:23;;;;;;;11.12;7.37;;;;;;;7.35;53.53;99050.49;128234;1101;22525;-75
2021/03/14 10:44:05;;;;;;;9.18;6.78;;;;;;;7.33;53.70;99046.41;128009;1100;22524;-76
2021/03/14 10:46:55;;;;;;;5.60;3.87;;;;;;;7.34;53.61;99066.45;128200;1100;22497;-76
2021/03/14 10:49:33;;;;;;;6.90;4.75;;;;;;;7.29;54.01;99067.77;128222;1101;24578;-76
2021/03/14 10:52:13;;;;;;;9.13;4.10;;;;;;;7.26;54.15;99064.69;128006;1099;22959;-76
2021/03/14 10:54:43;;;;;;;6.92;4.47;;;;;;;7.24;53.87;99064.06;128048;1101;22463;-77
2021/03/14 10:57:33;;;;;;;7.87;4.93;;;;;;;7.18;54.09;99070.02;127992;1101;22490;-76
2021/03/14 11:00:08;;;;;;;8.98;6.03;;;;;;;7.16;54.68;99075.44;128227;1099;22631;-78
2021/03/14 11:02:42;;;;;;;7.40;4.47;;;;;;;7.10;55.18;99085.83;128085;1101;22523;-76
2021/03/14 11:05:21;;;;;;;5.08;3.77;;;;;;;7.00;55.65;99084.28;127996;1101;22524;-76
2021/03/14 11:08:00;;;;;;;6.37;4.28;;;;;;;6.90;55.73;99091.58;127953;1101;22489;-76
2021/03/14 11:10:55;;;;;;;8.05;4.00;;;;;;;6.80;56.28;99111.99;128231;1099;22501;-77
2021/03/14 11:13:42;;;;;;;6.33;4.78;;;;;;;6.67;57.34;99088.94;128223;1101;22525;-77
2021/03/14 11:16:36;;;;;;;7.42;5.03;;;;;;;6.70;58.40;99090.41;128018;1101;22487;-75
2021/03/14 11:19:10;;;;;;;8.58;5.28;;;;;;;6.80;58.86;99091.80;128005;1100;23477;-77
2021/03/14 11:21:45;;;;;;;10.43;6.53;;;;;;;6.96;59.05;99087.41;128222;1101;23264;-77
2021/03/14 11:24:14;;;;;;;9.13;5.80;;;;;;;7.17;59.40;99092.84;128068;1101;23498;-76
2021/03/14 11:26:45;;;;;;;11.28;6.20;;;;;;;7.33;58.97;99093.69;128073;1101;22595;-77
2021/03/14 11:29:13;;;;;;;11.50;9.10;;;;;;;7.43;58.44;99099.51;128264;1099;22511;-77
2021/03/14 11:31:52;;;;;;;7.90;5.30;;;;;;;7.46;58.50;99100.00;128070;1099;22529;-76
2021/03/14 11:34:22;;;;;;;9.40;4.87;;;;;;;7.50;58.34;99092.58;128076;1101;22505;-75
2021/03/14 11:37:12;;;;;;;10.18;5.17;;;;;;;7.57;58.58;99103.19;127861;1101;22514;-76
2021/03/14 11:39:54;;;;;;;8.07;5.67;;;;;;;7.70;58.26;99098.12;128085;1101;22639;-76
2021/03/14 11:42:26;;;;;;;6.55;5.17;;;;;;;7.82;57.77;99098.48;128049;1101;22508;-76
2021/03/14 11:45:15;;;;;;;7.22;5.28;;;;;;;7.88;57.70;99090.69;128051;1100;22500;-77
2021/03/14 11:47:44;;;;;;;9.15;5.45;;;;;;;7.93;57.61;99088.34;128044;1101;22598;-77
2021/03/14 11:50:32;;;;;;;6.45;3.98;;;;;;;7.84;56.91;99094.69;128303;1101;22471;-77
2021/03/14 11:53:00;;;;;;;6.05;4.30;;;;;;;7.79;56.82;99099.66;128040;1101;22510;-77
2021/03/14 11:55:33;;;;;;;5.80;3.58;;;;;;;7.69;57.04;99093.84;128007;1101;22545;-77
2021/03/14 11:58:03;;;;;;;3.95;3.40;;;;;;;7.66;57.53;99094.20;128007;1101;22563;-76
2021/03/14 12:00:31;;;;;;;5.10;3.80;;;;;;;7.60;57.50;99102.80;128041;1101;22569;-78
2021/03/14 12:02:59;;;;;;;7.77;5.70;;;;;;;7.57;57.51;99108.44;128067;1099;22527;-79